Wells, Texas
Current Conditions -  °F | °C
As of 5:55 PM on Saturday 22 Nov 2014 (Local Time) from KOCH Reporting Station
Thunderstorm Thunderstorm  
Wind Chill: 64°   Ceiling: 1800
Heat Index: 64°   Visibility: 10mi
Dew Point: 61°   Wind: 6mph
Humidity: 88%   Direction: 100°E
Pressure: 29.87"   Gusts: NA
Location:  31.49°N, 94.94°W
Report Text: KOCH 222355Z AUTO 10005KT 10SM VCTS OVC018 18/16 A2987 RMK AO1 LTG DSNT SW TSB45 10210 20180 57020
Loading
Personal Weather Stations






























Interactive Weather Map New forecast layout! Learn more

10-Day Weather Forecast

Advertisements
Track Severe Weather on mobile